首页
METAR-TAF:

METAR-TAF

机场 :

布里斯班機場

布里斯班, 澳大利亚

纬度: 27-23S, 经度: 153-06E, 海拔: 4米

当前天气观测

该预报发布于11分钟前的00:00 UTC
风速4节,风向西,在西南西转西北之间变化
温度 22°C
湿度 23%
气压 1014 hPa
能见度10公里或以上
1500米以下无云,无积雨云

METAR: YBBN 170000Z 26004KT 220V290 CAVOK 22/M00 Q1014 NOSIG

时间: 10:11 (00:11 UTC)

预报

该预报发布于53分钟前的23:18 UTC
预报有效从17日的 00点(UTC)到 18日的 06点(UTC)
风速6节,风向西转西南
能见度10公里或以上
1500米以下无云,无积雨云
从 17日的 0400点(UTC)
风速10节,风向北转东北
能见度10公里或以上
1500米以下无云,无积雨云
从 17日的 1000点(UTC)
风速5节,风向北转西北
能见度10公里或以上
1500米以下无云,无积雨云
从 17日的 1500点(UTC)
风速6节,风向西转西南
能见度10公里或以上
浅雾, 霾
从 18日的 0200点(UTC)
风速10节,风向西
能见度10公里或以上
1500米以下无云,无积雨云

TAF: YBBN 162318Z 1700/1806 24006KT CAVOK FM170400 02010KT CAVOK FM171000 33005KT CAVOK FM171500 24006KT 9999 MIFG HZ NSC FM180200 27010KT CAVOK

超过4000个机场的气象观测和天气预报(METAR&TAF报告)。

可查询的气象台以黄色和红色小点在地图上表示。

将鼠标移到小点上方,可查看气象台名称。

然后点击查看天气观测和预报。

如需切换地图:点击带黑十字的绿色按钮放大地图;点击带横线的绿色按钮缩小地图;或者点击绿色箭头查看邻近地区的地图。


METAR-TAF: